Time;durP1;ratioP1;P1;durP2;ratioP2;P2;SDS_P1;SDS_P2;PMS_P1;PMS_P2;Temp;Humidity;BMP_temperature;BMP_pressure;BME280_temperature;BME280_humidity;BME280_pressure;Samples;Min_cycle;Max_cycle;Signal;HPM_P1;HPM_P2
2021/11/24 00:01:32;;;;;;;56.67;33.87;;;;;;;0.16;82.42;100940.56;1676878;84;21096;-65
2021/11/24 00:03:58;;;;;;;;;;;;;;;0.13;82.67;100949.10;1689763;84;21132;-67
2021/11/24 00:06:25;;;;;;;59.20;35.30;;;;;;;0.09;82.87;100952.41;1681167;83;20144;-65
2021/11/24 00:08:52;;;;;;;57.60;36.42;;;;;;;-0.01;83.12;100954.82;1684570;84;21131;-65
2021/11/24 00:11:20;;;;;;;59.47;34.73;;;;;;;-0.06;83.20;100956.08;1634834;86;21083;-65
2021/11/24 00:13:47;;;;;;;57.70;37.87;;;;;;;-0.09;83.51;100953.69;1646622;85;21183;-64
2021/11/24 00:16:14;;;;;;;53.93;35.03;;;;;;;-0.08;83.77;100955.34;1656126;85;21041;-66
2021/11/24 00:18:42;;;;;;;62.80;38.08;;;;;;;-0.07;83.83;100958.34;1660930;85;21107;-63
2021/11/24 00:21:08;;;;;;;61.97;36.73;;;;;;;-0.09;83.82;100955.83;1669295;84;21027;-65
2021/11/24 00:23:35;;;;;;;;;;;;;;;-0.08;84.12;100955.34;1637466;85;21042;-64
2021/11/24 00:26:02;;;;;;;57.53;34.43;;;;;;;-0.04;84.26;100955.50;1681062;84;20488;-65
2021/11/24 00:28:30;;;;;;;55.20;33.03;;;;;;;-0.04;84.56;100963.36;1681597;84;21660;-64
2021/11/24 00:30:57;;;;;;;58.23;36.53;;;;;;;0.00;84.59;100960.92;1673737;84;21584;-64
2021/11/24 00:33:24;;;;;;;57.83;35.90;;;;;;;0.04;84.60;100962.39;1683255;84;21214;-65
2021/11/24 00:35:50;;;;;;;63.10;36.63;;;;;;;0.09;84.70;100968.13;1676796;84;21001;-65
2021/11/24 00:38:18;;;;;;;;;;;;;;;0.14;84.75;100963.42;1684551;84;21025;-65
2021/11/24 00:40:44;;;;;;;57.95;35.52;;;;;;;0.19;84.79;100967.88;1677089;84;20132;-64
2021/11/24 00:43:11;;;;;;;69.00;35.87;;;;;;;0.17;84.85;100969.77;1674411;84;21005;-69
2021/11/24 00:45:37;;;;;;;59.80;34.92;;;;;;;0.19;84.88;100965.74;1680295;82;21105;-67
2021/11/24 00:48:06;;;;;;;54.30;35.03;;;;;;;0.24;84.93;100964.93;1677447;84;21275;-65
2021/11/24 00:50:33;;;;;;;;;;;;;;;0.28;84.84;100970.32;1682567;84;21105;-64
2021/11/24 00:53:00;;;;;;;69.53;37.98;;;;;;;0.31;84.90;100967.98;1678896;84;20140;-64
2021/11/24 00:55:26;;;;;;;;;;;;;;;0.32;85.04;100970.95;1682897;84;21283;-67
2021/11/24 00:57:53;;;;;;;60.90;34.87;;;;;;;0.36;85.07;100967.20;1678521;84;20380;-65
2021/11/24 01:00:19;;;;;;;60.65;37.10;;;;;;;0.38;85.26;100972.69;1673980;84;21536;-64
2021/11/24 01:02:46;;;;;;;63.78;35.95;;;;;;;0.45;85.30;100979.64;1660099;84;21093;-63
2021/11/24 01:05:13;;;;;;;66.95;37.35;;;;;;;0.50;85.14;100968.84;1669161;84;21049;-63
2021/11/24 01:07:39;;;;;;;53.00;34.13;;;;;;;0.54;84.96;100980.31;1669105;84;21181;-64
2021/11/24 01:10:08;;;;;;;65.00;36.75;;;;;;;0.57;84.92;100978.80;1661871;84;20998;-63
2021/11/24 01:12:36;;;;;;;60.90;36.23;;;;;;;0.62;84.93;100979.77;1679557;83;21052;-64
2021/11/24 01:15:05;;;;;;;61.47;36.87;;;;;;;0.68;84.91;100982.44;1699981;83;21048;-63
2021/11/24 01:17:32;;;;;;;61.30;38.00;;;;;;;0.73;84.80;100979.84;1699111;83;21051;-66
2021/11/24 01:19:59;;;;;;;62.57;38.30;;;;;;;0.77;84.55;100983.09;1702794;83;21080;-63
2021/11/24 01:22:25;;;;;;;;;;;;;;;0.84;84.55;100977.78;1707213;80;21632;-62
2021/11/24 01:24:52;;;;;;;64.57;38.23;;;;;;;0.91;84.60;100974.26;1701471;83;20141;-65
2021/11/24 01:27:18;;;;;;;57.20;35.75;;;;;;;0.91;84.50;100979.02;1702079;83;21067;-63
2021/11/24 01:29:45;;;;;;;62.58;35.65;;;;;;;0.94;84.23;100980.13;1702541;83;21020;-64
2021/11/24 01:32:12;;;;;;;67.17;35.97;;;;;;;0.96;83.98;100983.48;1640410;86;21598;-62
2021/11/24 01:34:39;;;;;;;55.50;34.17;;;;;;;0.99;83.89;100977.64;1657630;85;21651;-66
2021/11/24 01:37:06;;;;;;;56.00;36.17;;;;;;;1.01;83.76;100970.01;1665858;84;21024;-65
2021/11/24 01:39:33;;;;;;;53.20;33.87;;;;;;;1.03;83.73;100987.80;1674921;84;21037;-65
2021/11/24 01:41:59;;;;;;;56.85;33.67;;;;;;;1.06;83.71;100988.07;1641667;86;21115;-62
2021/11/24 01:44:29;;;;;;;53.77;33.37;;;;;;;1.10;83.57;100979.02;1657453;85;21002;-61
2021/11/24 01:46:59;;;;;;;57.70;35.40;;;;;;;1.12;83.50;100979.25;1633447;86;21087;-65
2021/11/24 01:49:27;;;;;;;57.03;35.33;;;;;;;1.14;83.34;100979.16;1650358;85;21520;-64
2021/11/24 01:51:56;;;;;;;52.80;33.80;;;;;;;1.16;83.29;100978.56;1613964;87;21095;-63
2021/11/24 01:54:24;;;;;;;56.10;33.37;;;;;;;1.17;83.23;100973.69;1651224;85;21536;-63
2021/11/24 01:56:52;;;;;;;51.07;32.13;;;;;;;1.22;83.16;100981.22;1644305;86;21026;-66
2021/11/24 01:59:18;;;;;;;54.40;33.27;;;;;;;1.23;82.88;100977.66;1646877;85;21018;-61
2021/11/24 02:01:46;;;;;;;53.28;32.70;;;;;;;1.20;82.80;100978.70;1641344;86;21056;-63
2021/11/24 02:04:17;;;;;;;49.33;31.77;;;;;;;1.22;82.92;100983.36;1634741;86;21080;-63
2021/11/24 02:06:46;;;;;;;48.33;32.60;;;;;;;1.24;83.11;100985.39;1637784;86;21095;-61
2021/11/24 02:09:12;;;;;;;50.33;33.07;;;;;;;1.25;83.05;100983.14;1636904;86;21039;-63
2021/11/24 02:11:43;;;;;;;52.60;35.10;;;;;;;1.28;83.08;100977.68;1642188;85;21032;-67
2021/11/24 02:14:11;;;;;;;49.57;32.10;;;;;;;1.29;83.09;100987.22;1675148;85;21049;-64
2021/11/24 02:16:44;;;;;;;55.40;33.30;;;;;;;1.33;83.16;100982.09;1666136;85;21080;-64
2021/11/24 02:19:11;;;;;;;49.23;34.00;;;;;;;1.37;82.92;100981.40;1675371;85;21097;-62
2021/11/24 02:21:37;;;;;;;46.02;32.13;;;;;;;1.36;82.89;100983.20;1677791;85;21063;-64
2021/11/24 02:24:05;;;;;;;56.40;33.80;;;;;;;1.36;82.89;100983.20;1700136;82;21673;-62
2021/11/24 02:26:31;;;;;;;50.53;34.30;;;;;;;1.40;83.03;100982.98;1696891;83;21118;-61
2021/11/24 02:28:58;;;;;;;49.00;32.80;;;;;;;1.43;83.01;100985.36;1697585;83;21036;-62
2021/11/24 02:31:28;;;;;;;50.80;34.40;;;;;;;1.45;82.96;100984.77;1716662;83;20997;-61
2021/11/24 02:33:57;;;;;;;47.40;32.83;;;;;;;1.47;82.95;100983.73;1697330;83;21055;-59
2021/11/24 02:36:26;;;;;;;52.30;33.80;;;;;;;1.49;82.93;100983.14;1696541;83;20937;-63
2021/11/24 02:38:53;;;;;;;45.30;33.20;;;;;;;1.54;83.00;100985.41;1703257;83;21555;-64
2021/11/24 02:41:20;;;;;;;42.47;30.77;;;;;;;1.55;82.92;100981.84;1629616;86;21553;-64
2021/11/24 02:43:46;;;;;;;;;;;;;;;1.55;82.71;100991.88;1643870;86;21022;-63
2021/11/24 02:46:14;;;;;;;47.95;32.15;;;;;;;1.52;82.47;100999.97;1658400;85;20280;-63
2021/11/24 02:48:40;;;;;;;;;;;;;;;1.43;82.69;100999.36;1668595;85;21041;-65
2021/11/24 02:51:07;;;;;;;57.13;34.13;;;;;;;1.43;82.95;101006.37;1657885;85;20119;-65
2021/11/24 02:53:37;;;;;;;51.63;33.23;;;;;;;1.42;83.22;101003.41;1662473;85;21044;-65
2021/11/24 02:56:05;;;;;;;50.13;32.07;;;;;;;1.46;83.38;101009.63;1662066;84;21500;-62
2021/11/24 02:58:32;;;;;;;45.37;32.27;;;;;;;1.51;83.31;101010.62;1674208;84;21301;-62
2021/11/24 03:01:02;;;;;;;46.07;32.70;;;;;;;1.55;83.39;101011.58;1656823;85;21023;-63
2021/11/24 03:03:29;;;;;;;49.27;33.63;;;;;;;1.60;83.37;101014.33;1669112;85;22232;-62
2021/11/24 03:05:57;;;;;;;43.63;31.77;;;;;;;1.65;83.25;101006.95;1656207;85;21001;-62
2021/11/24 03:08:24;;;;;;;39.77;29.63;;;;;;;1.68;83.29;101004.94;1655111;85;21532;-64
2021/11/24 03:10:52;;;;;;;44.50;31.62;;;;;;;1.73;83.20;101013.33;1663138;85;21020;-62
2021/11/24 03:13:21;;;;;;;40.20;29.57;;;;;;;1.78;83.08;101012.97;1664139;85;21024;-63
2021/11/24 03:15:47;;;;;;;39.27;28.73;;;;;;;1.80;82.83;101012.86;1664455;85;21032;-63
2021/11/24 03:18:15;;;;;;;37.30;27.43;;;;;;;1.81;82.76;101014.06;1665319;85;21037;-61
2021/11/24 03:20:42;;;;;;;37.93;27.67;;;;;;;1.83;82.74;101016.55;1675527;85;21155;-66
2021/11/24 03:23:09;;;;;;;33.58;25.92;;;;;;;1.83;82.79;101017.42;1659030;84;21542;-63
2021/11/24 03:25:36;;;;;;;42.63;29.77;;;;;;;1.85;82.77;101027.83;1670668;85;21587;-65
2021/11/24 03:28:06;;;;;;;33.83;26.80;;;;;;;1.86;82.75;101022.91;1665770;85;21018;-63
2021/11/24 03:30:34;;;;;;;38.03;26.00;;;;;;;1.87;82.88;101025.91;1674943;85;21048;-63
2021/11/24 03:33:03;;;;;;;33.27;24.47;;;;;;;1.90;82.78;101028.30;1655784;85;21023;-62
2021/11/24 03:35:32;;;;;;;37.20;25.13;;;;;;;1.85;82.01;101027.83;1656424;85;21060;-62
2021/11/24 03:38:00;;;;;;;37.67;26.30;;;;;;;1.73;82.12;101025.61;1667038;85;21114;-62
2021/11/24 03:40:30;;;;;;;38.67;26.93;;;;;;;1.67;82.59;101038.73;1650372;85;21074;-62
2021/11/24 03:42:57;;;;;;;37.77;26.80;;;;;;;1.67;82.89;101043.16;1662340;85;21073;-63
2021/11/24 03:45:32;;;;;;;38.77;27.57;;;;;;;1.67;83.02;101039.21;1664200;85;21536;-63
2021/11/24 03:47:59;;;;;;;34.37;24.80;;;;;;;1.68;83.15;101036.48;1661184;85;21049;-61
2021/11/24 03:50:27;;;;;;;35.10;23.00;;;;;;;1.70;83.27;101040.31;1657711;85;21108;-63
2021/11/24 03:52:54;;;;;;;36.60;26.57;;;;;;;1.68;83.27;101040.91;1661509;85;21009;-65
2021/11/24 03:55:20;;;;;;;35.50;25.50;;;;;;;1.66;83.28;101040.19;1659528;85;20989;-63
2021/11/24 03:57:48;;;;;;;39.10;27.03;;;;;;;1.65;83.52;101043.27;1656988;85;21050;-63
2021/11/24 04:02:08;;;;;;;32.87;23.10;;;;;;;1.73;83.48;101044.01;1700420;77;22398;-62
2021/11/24 04:04:35;;;;;;;32.50;23.00;;;;;;;1.68;83.64;101043.05;1667219;84;21060;-63
2021/11/24 04:07:01;;;;;;;;;;;;;;;1.73;83.65;101047.50;1670241;84;21067;-63
2021/11/24 04:09:28;;;;;;;42.10;26.57;;;;;;;1.75;83.55;101052.61;1671991;84;20221;-65
2021/11/24 04:11:55;;;;;;;34.60;26.53;;;;;;;1.72;83.64;101052.38;1674688;84;21005;-64
2021/11/24 04:14:22;;;;;;;32.13;23.93;;;;;;;1.75;83.55;101055.24;1674091;84;21088;-63
2021/11/24 04:16:48;;;;;;;33.53;25.32;;;;;;;1.80;83.54;101058.38;1676421;84;20957;-64
2021/11/24 04:19:14;;;;;;;32.67;25.25;;;;;;;1.83;83.46;101055.53;1674208;84;21092;-63
2021/11/24 04:21:41;;;;;;;37.53;25.45;;;;;;;1.84;83.37;101053.73;1674382;84;21068;-63
2021/11/24 04:24:08;;;;;;;33.50;24.83;;;;;;;1.87;83.37;101062.23;1674537;84;21017;-64
2021/11/24 04:26:35;;;;;;;34.67;25.20;;;;;;;1.89;83.44;101052.92;1657283;85;21138;-64
2021/11/24 04:29:02;;;;;;;47.98;27.35;;;;;;;1.92;83.35;101057.48;1674305;84;21026;-64
2021/11/24 04:31:29;;;;;;;36.27;24.70;;;;;;;1.94;83.26;101060.83;1674275;84;21052;-64
2021/11/24 04:33:55;;;;;;;42.50;26.10;;;;;;;1.95;83.25;101062.97;1682834;83;20982;-64
2021/11/24 04:36:22;;;;;;;39.33;26.42;;;;;;;1.99;83.27;101059.16;1694293;83;21037;-64
2021/11/24 04:38:49;;;;;;;37.37;26.73;;;;;;;2.00;83.14;101056.91;1682032;83;21091;-64
2021/11/24 04:41:16;;;;;;;33.57;24.73;;;;;;;2.04;83.08;101059.66;1701770;83;21409;-64
2021/11/24 04:43:45;;;;;;;33.30;23.90;;;;;;;2.06;83.07;101059.06;1694347;83;21025;-63
2021/11/24 04:46:13;;;;;;;37.70;26.27;;;;;;;2.09;83.06;101056.67;1680850;83;21001;-62
2021/11/24 04:48:39;;;;;;;37.70;24.90;;;;;;;2.11;83.07;101056.07;1679837;84;21520;-63
2021/11/24 04:51:06;;;;;;;32.50;23.73;;;;;;;2.12;83.01;101057.77;1677210;84;21020;-64
2021/11/24 04:53:35;;;;;;;34.97;25.57;;;;;;;2.15;82.96;101057.55;1680128;84;21493;-63
2021/11/24 04:56:02;;;;;;;39.57;27.03;;;;;;;2.18;82.78;101060.41;1679207;82;21635;-62
2021/11/24 04:58:29;;;;;;;43.20;27.33;;;;;;;2.18;82.68;101066.98;1680066;84;21638;-64
2021/11/24 05:00:55;;;;;;;;;;;;;;;2.19;82.69;101064.24;1686949;83;21091;-63
2021/11/24 05:03:21;;;;;;;44.47;28.97;;;;;;;2.18;82.27;101070.93;1702866;83;20823;-65
2021/11/24 05:05:48;;;;;;;41.60;28.97;;;;;;;2.09;82.44;101075.08;1702371;83;21102;-64
2021/11/24 05:08:15;;;;;;;44.80;30.40;;;;;;;2.08;82.64;101074.73;1702939;83;20960;-64
2021/11/24 05:10:43;;;;;;;44.00;30.33;;;;;;;2.09;82.69;101070.68;1702689;83;21499;-64
2021/11/24 05:13:10;;;;;;;40.45;29.72;;;;;;;2.10;82.76;101068.39;1713389;82;21581;-64
2021/11/24 05:15:40;;;;;;;46.48;29.90;;;;;;;2.10;82.62;101072.34;1714542;82;21013;-63
2021/11/24 05:18:07;;;;;;;46.50;28.90;;;;;;;2.11;82.62;101071.40;1711083;82;21164;-64
2021/11/24 05:20:35;;;;;;;41.40;28.83;;;;;;;2.09;82.61;101073.77;1709325;82;21525;-64
2021/11/24 05:23:04;;;;;;;46.10;30.83;;;;;;;2.04;82.43;101076.75;1682802;82;21169;-65
2021/11/24 05:25:33;;;;;;;46.63;29.73;;;;;;;2.02;82.61;101078.66;1670404;84;21014;-64
2021/11/24 05:28:02;;;;;;;46.13;29.40;;;;;;;2.05;82.87;101083.67;1669893;84;21032;-64
2021/11/24 05:30:29;;;;;;;39.50;27.90;;;;;;;2.07;82.94;101076.98;1669952;84;21105;-64
2021/11/24 05:32:56;;;;;;;38.37;26.97;;;;;;;2.10;83.00;101080.23;1667722;84;21007;-66
2021/11/24 05:35:25;;;;;;;44.67;28.87;;;;;;;2.10;82.96;101083.34;1668918;84;21609;-65
2021/11/24 05:37:53;;;;;;;37.97;27.10;;;;;;;2.11;82.88;101083.23;1668253;84;21073;-66
2021/11/24 05:40:19;;;;;;;40.73;25.70;;;;;;;2.10;82.81;101084.17;1668959;84;21126;-64
2021/11/24 05:42:48;;;;;;;;;;;;;;;2.10;82.75;101083.34;1673247;84;20995;-63
2021/11/24 05:45:27;;;;;;;41.20;27.67;;;;;;;2.09;82.60;101092.17;1677885;82;20479;-64
2021/11/24 05:48:08;;;;;;;40.20;28.13;;;;;;;2.02;82.77;101088.34;1704435;82;21634;-65
2021/11/24 05:50:32;;;;;;;47.93;34.13;;;;;;;2.01;82.95;101096.69;1717129;82;21044;-64
2021/11/24 05:52:59;;;;;;;49.70;34.63;;;;;;;2.03;83.21;101097.41;1717449;82;21140;-66
2021/11/24 05:55:25;;;;;;;38.45;28.52;;;;;;;2.08;83.36;101101.03;1713876;82;21054;-65
2021/11/24 05:57:53;;;;;;;36.60;28.03;;;;;;;2.14;83.46;101104.03;1719941;83;21073;-64
2021/11/24 06:00:20;;;;;;;37.48;24.65;;;;;;;2.18;83.18;101107.27;1711488;82;21073;-66
2021/11/24 06:02:49;;;;;;;31.47;23.60;;;;;;;2.16;83.02;101113.12;1708512;82;21211;-66
2021/11/24 06:05:16;;;;;;;32.73;23.90;;;;;;;2.17;83.13;101108.69;1716699;82;22755;-65
2021/11/24 06:07:42;;;;;;;31.57;24.45;;;;;;;2.18;83.17;101111.70;1715093;82;21033;-65
2021/11/24 06:10:10;;;;;;;;;;;;;;;2.22;83.17;101111.83;1719651;82;22211;-68
2021/11/24 06:12:37;;;;;;;34.37;23.57;;;;;;;2.26;83.07;101121.16;1694330;83;20099;-66
2021/11/24 06:15:06;;;;;;;29.20;20.87;;;;;;;2.24;83.18;101117.35;1689446;83;21041;-65
2021/11/24 06:17:33;;;;;;;29.97;21.90;;;;;;;2.29;83.19;101109.09;1687075;84;21037;-64
2021/11/24 06:20:00;;;;;;;25.67;21.20;;;;;;;2.34;82.99;101112.23;1692757;83;21664;-68
2021/11/24 06:22:27;;;;;;;28.87;19.83;;;;;;;2.40;82.87;101116.19;1681927;84;21061;-68
2021/11/24 06:24:54;;;;;;;24.70;18.40;;;;;;;2.44;82.74;101113.20;1668386;84;21029;-65
2021/11/24 06:27:20;;;;;;;22.80;17.25;;;;;;;2.47;82.49;101115.61;1666770;84;21053;-67
2021/11/24 06:29:46;;;;;;;22.65;17.23;;;;;;;2.50;82.23;101121.10;1672877;84;21074;-67
2021/11/24 06:32:13;;;;;;;23.95;18.95;;;;;;;2.49;81.93;101120.27;1661897;84;21038;-64
2021/11/24 06:34:40;;;;;;;21.50;17.03;;;;;;;2.49;81.91;101118.95;1697632;82;20940;-64
2021/11/24 06:37:07;;;;;;;20.48;16.50;;;;;;;2.51;81.97;101117.53;1716704;82;21026;-66
2021/11/24 06:39:35;;;;;;;25.33;19.03;;;;;;;2.56;81.95;101119.31;1706886;82;21052;-64
2021/11/24 06:42:01;;;;;;;20.93;16.53;;;;;;;2.61;81.94;101118.98;1720514;82;21059;-63
2021/11/24 06:44:28;;;;;;;20.90;16.20;;;;;;;2.65;81.86;101124.36;1714752;82;21021;-63
2021/11/24 06:46:55;;;;;;;21.23;17.20;;;;;;;2.67;81.52;101123.28;1719056;83;21044;-60
2021/11/24 06:49:21;;;;;;;20.53;16.20;;;;;;;2.66;81.54;101116.84;1719592;83;21053;-62
2021/11/24 06:51:48;;;;;;;19.57;16.50;;;;;;;2.67;81.59;101125.08;1720143;82;21058;-62
2021/11/24 06:54:17;;;;;;;;;;;;;;;2.66;81.64;101119.47;1722627;82;21021;-61
2021/11/24 06:56:46;;;;;;;20.67;15.73;;;;;;;2.68;81.69;101121.50;1712317;82;20131;-60
2021/11/24 06:59:13;;;;;;;20.70;14.83;;;;;;;2.65;81.88;101120.41;1716716;82;21129;-63
2021/11/24 07:01:41;;;;;;;21.97;16.23;;;;;;;2.64;81.41;101126.66;1711645;82;21512;-61
2021/11/24 07:04:09;;;;;;;22.90;16.50;;;;;;;2.60;81.27;101123.41;1708733;82;21057;-63
2021/11/24 07:06:37;;;;;;;19.70;16.27;;;;;;;2.58;81.65;101131.05;1717109;82;21784;-63
2021/11/24 07:09:04;;;;;;;21.47;15.10;;;;;;;2.57;81.79;101130.70;1717967;82;20998;-60
2021/11/24 07:11:32;;;;;;;19.83;15.63;;;;;;;2.53;81.85;101129.61;1719438;82;21089;-66
2021/11/24 07:13:59;;;;;;;21.70;14.90;;;;;;;2.50;81.90;101135.58;1711506;82;20981;-61
2021/11/24 07:16:26;;;;;;;24.33;18.33;;;;;;;2.55;82.35;101139.20;1716520;82;21096;-62
2021/11/24 07:18:53;;;;;;;19.90;16.40;;;;;;;2.59;82.37;101132.73;1727529;82;21531;-62
2021/11/24 07:21:19;;;;;;;;;;;;;;;2.58;82.24;101130.59;1719419;82;21069;-64
2021/11/24 07:23:46;;;;;;;19.07;14.63;;;;;;;2.59;82.41;101138.83;1719814;82;20137;-61
2021/11/24 07:26:12;;;;;;;20.25;15.95;;;;;;;2.56;82.48;101133.79;1705018;83;21106;-62
2021/11/24 07:28:39;;;;;;;;;;;;;;;2.57;82.59;101132.02;1722008;82;21084;-62
2021/11/24 07:31:05;;;;;;;20.37;15.63;;;;;;;2.59;82.76;101133.56;1715658;82;20168;-61
2021/11/24 07:33:32;;;;;;;25.82;16.05;;;;;;;2.63;83.11;101131.54;1716581;82;21538;-63
2021/11/24 07:35:58;;;;;;;20.23;15.38;;;;;;;2.74;83.61;101136.82;1687510;83;21042;-62
2021/11/24 07:38:25;;;;;;;20.32;14.58;;;;;;;2.83;83.22;101133.97;1675103;84;21063;-62
2021/11/24 07:40:52;;;;;;;20.97;13.40;;;;;;;2.90;82.97;101142.59;1698716;83;21190;-63
2021/11/24 07:43:19;;;;;;;21.10;15.15;;;;;;;2.91;82.37;101144.73;1658028;84;21064;-60
2021/11/24 07:45:45;;;;;;;26.10;17.50;;;;;;;2.88;82.37;101145.82;1683368;83;21046;-60
2021/11/24 07:48:12;;;;;;;23.27;17.12;;;;;;;2.90;82.93;101148.31;1693286;83;21056;-61
2021/11/24 07:50:38;;;;;;;;;;;;;;;2.94;82.74;101147.14;1687525;83;21005;-59
2021/11/24 07:53:05;;;;;;;23.93;16.03;;;;;;;2.97;82.34;101142.94;1692517;83;20123;-60
2021/11/24 07:55:33;;;;;;;19.53;15.80;;;;;;;2.88;82.02;101141.87;1674575;84;21025;-59
2021/11/24 07:58:02;;;;;;;19.63;15.63;;;;;;;2.86;82.42;101141.61;1690247;83;21464;-62
2021/11/24 08:00:31;;;;;;;20.80;15.27;;;;;;;2.91;82.95;101144.25;1668237;85;21086;-61
2021/11/24 08:02:57;;;;;;;20.97;16.25;;;;;;;3.04;83.17;101145.95;1622740;86;21101;-60
2021/11/24 08:05:25;;;;;;;;;;;;;;;2.91;83.18;101107.87;1690421;83;21016;-61
2021/11/24 08:07:51;;;;;;;20.08;16.87;;;;;;;3.26;82.71;101147.26;1692684;83;20095;-62
2021/11/24 08:10:18;;;;;;;18.27;14.70;;;;;;;3.34;82.96;101148.45;1705849;83;20989;-61
2021/11/24 08:12:44;;;;;;;19.12;13.25;;;;;;;3.49;82.45;101140.64;1694291;82;20984;-62
2021/11/24 08:15:11;;;;;;;16.07;12.15;;;;;;;3.59;81.09;101142.05;1667796;85;21060;-62
2021/11/24 08:17:38;;;;;;;18.17;12.30;;;;;;;3.67;80.75;101151.03;1700249;83;21049;-62
2021/11/24 08:20:07;;;;;;;17.05;13.85;;;;;;;3.74;80.00;101157.12;1701133;83;21115;-65
2021/11/24 08:22:35;;;;;;;15.73;12.73;;;;;;;3.76;78.18;101155.20;1677508;83;21026;-61
2021/11/24 08:25:02;;;;;;;18.03;13.27;;;;;;;3.75;78.88;101158.78;1697008;83;21052;-62
2021/11/24 08:27:29;;;;;;;16.30;13.57;;;;;;;3.78;78.98;101152.78;1695933;83;21010;-61
2021/11/24 08:29:55;;;;;;;;;;;;;;;3.87;78.87;101148.57;1700779;83;21081;-62
2021/11/24 08:32:21;;;;;;;17.20;13.40;;;;;;;3.96;78.95;101150.46;1694365;83;20109;-63
2021/11/24 08:34:48;;;;;;;18.70;13.38;;;;;;;4.00;78.41;101149.73;1681057;84;21484;-60
2021/11/24 08:37:14;;;;;;;;;;;;;;;4.01;78.01;101144.34;1701461;83;21071;-63
2021/11/24 08:39:43;;;;;;;13.67;11.47;;;;;;;4.04;76.78;101137.47;1682575;84;20105;-61
2021/11/24 08:42:09;;;;;;;15.25;12.10;;;;;;;4.00;77.75;101137.38;1700050;83;21004;-64
2021/11/24 08:44:36;;;;;;;15.05;11.50;;;;;;;4.12;77.70;101133.37;1698865;82;21579;-64
2021/11/24 08:47:03;;;;;;;18.13;13.87;;;;;;;4.24;78.01;101133.20;1699360;83;21579;-64
2021/11/24 08:49:29;;;;;;;15.10;13.40;;;;;;;4.45;77.75;101133.20;1691646;83;21032;-63
2021/11/24 08:51:56;;;;;;;;;;;;;;;4.55;76.39;101122.69;1694555;83;21023;-61
2021/11/24 08:54:22;;;;;;;16.67;11.07;;;;;;;4.61;76.77;101120.84;1674766;84;20237;-62
2021/11/24 08:56:49;;;;;;;15.00;11.53;;;;;;;4.71;76.37;101119.60;1694740;82;21022;-62
2021/11/24 08:59:16;;;;;;;15.38;13.20;;;;;;;4.84;75.20;101119.36;1680739;84;21019;-63
2021/11/24 09:01:42;;;;;;;15.63;11.85;;;;;;;4.84;75.09;101121.55;1688848;83;21530;-60
2021/11/24 09:04:08;;;;;;;14.40;12.65;;;;;;;4.77;75.03;101123.52;1700449;83;21019;-62
2021/11/24 09:06:35;;;;;;;13.08;11.80;;;;;;;4.67;75.55;101127.41;1699403;83;21047;-63
2021/11/24 09:09:05;;;;;;;14.80;12.43;;;;;;;4.67;75.57;101124.30;1694405;83;21002;-64
2021/11/24 09:11:32;;;;;;;14.17;12.67;;;;;;;4.69;75.18;101124.18;1696725;83;21515;-61
2021/11/24 09:13:59;;;;;;;13.90;11.47;;;;;;;4.75;75.03;101126.78;1680769;84;21069;-65
2021/11/24 09:16:27;;;;;;;15.48;12.43;;;;;;;4.77;74.95;101129.64;1696959;83;21955;-61
2021/11/24 09:18:53;;;;;;;11.47;10.37;;;;;;;4.85;74.75;101131.13;1694243;83;21049;-61
2021/11/24 09:21:20;;;;;;;14.90;10.93;;;;;;;4.90;74.44;101133.84;1694167;83;21553;-60
2021/11/24 09:23:49;;;;;;;;;;;;;;;4.91;74.41;101134.22;1681847;82;21533;-61
2021/11/24 09:26:26;;;;;;;12.83;10.97;;;;;;;4.93;74.12;101132.28;1657492;85;20112;-62
2021/11/24 09:28:48;;;;;;;16.30;12.17;;;;;;;4.92;73.43;101135.91;1637506;86;21048;-63
2021/11/24 09:31:15;;;;;;;13.97;11.20;;;;;;;4.85;74.19;101132.45;1629777;86;21113;-63
2021/11/24 09:33:42;;;;;;;12.70;10.27;;;;;;;4.85;74.26;101134.26;1678023;82;21072;-62
2021/11/24 09:36:12;;;;;;;15.72;11.40;;;;;;;4.81;73.01;101131.53;1706675;83;20954;-62
2021/11/24 09:38:41;;;;;;;15.00;10.83;;;;;;;4.72;74.18;101129.19;1703445;83;21109;-63
2021/11/24 09:41:11;;;;;;;10.90;9.73;;;;;;;4.62;73.06;101130.45;1684789;84;21486;-61
2021/11/24 09:43:43;;;;;;;13.97;11.57;;;;;;;4.49;73.35;101135.09;1673216;84;21031;-64
2021/11/24 09:46:12;;;;;;;13.27;11.13;;;;;;;4.42;73.96;101131.30;1657518;84;21063;-63
2021/11/24 09:48:41;;;;;;;11.57;10.10;;;;;;;4.47;73.50;101133.91;1656947;85;21555;-64
2021/11/24 09:51:08;;;;;;;12.63;10.83;;;;;;;4.47;72.83;101135.72;1657353;85;21076;-63
2021/11/24 09:53:35;;;;;;;15.07;11.77;;;;;;;4.44;73.10;101132.83;1658503;85;21158;-61
2021/11/24 09:56:03;;;;;;;15.43;13.33;;;;;;;4.41;72.73;101131.79;1657479;83;21028;-63
2021/11/24 09:58:30;;;;;;;17.90;13.20;;;;;;;4.40;73.44;101132.73;1656821;85;21058;-62
2021/11/24 10:00:58;;;;;;;14.37;12.23;;;;;;;4.39;74.19;101128.44;1657146;84;21388;-62
2021/11/24 10:03:26;;;;;;;19.73;14.03;;;;;;;4.40;74.02;101131.91;1657311;85;21109;-62
2021/11/24 10:05:53;;;;;;;14.33;12.77;;;;;;;4.39;73.90;101128.91;1657001;85;21088;-61
2021/11/24 10:08:20;;;;;;;14.80;12.60;;;;;;;4.40;74.28;101129.27;1671791;84;21072;-64
2021/11/24 10:10:47;;;;;;;15.97;11.60;;;;;;;4.43;73.52;101121.94;1678951;84;21069;-63
2021/11/24 10:13:14;;;;;;;19.32;13.28;;;;;;;4.45;73.72;101127.92;1665658;83;21049;-64
2021/11/24 10:15:49;;;;;;;;;;;;;;;4.46;72.33;101126.97;1667122;84;21081;-61
2021/11/24 10:18:26;;;;;;;14.57;11.90;;;;;;;4.43;72.79;101118.47;1663572;84;20567;-61
2021/11/24 10:21:10;;;;;;;15.20;10.30;;;;;;;4.38;73.15;101116.20;1648548;85;21042;-63
2021/11/24 10:23:48;;;;;;;12.53;9.03;;;;;;;4.41;72.85;101121.72;1669682;83;21037;-63
2021/11/24 10:26:36;;;;;;;11.83;9.23;;;;;;;4.40;72.17;101117.39;1657294;85;20975;-62
2021/11/24 10:29:13;;;;;;;11.73;9.17;;;;;;;4.32;71.23;101118.03;1677058;84;21086;-61
2021/11/24 10:31:47;;;;;;;16.27;12.03;;;;;;;4.33;72.75;101109.62;1657111;85;21502;-62
2021/11/24 10:34:22;;;;;;;14.23;9.50;;;;;;;4.43;72.84;101114.02;1653579;84;21031;-61
2021/11/24 10:37:00;;;;;;;12.10;10.47;;;;;;;4.55;73.19;101113.45;1655183;84;21031;-62
2021/11/24 10:39:29;;;;;;;12.20;10.03;;;;;;;4.65;72.83;101114.36;1641397;85;21313;-63
2021/11/24 10:42:05;;;;;;;13.50;9.63;;;;;;;4.77;71.86;101120.39;1668496;84;21315;-64
2021/11/24 10:44:34;;;;;;;10.83;8.87;;;;;;;4.89;71.69;101122.45;1655782;84;21073;-63
2021/11/24 10:47:04;;;;;;;11.43;9.67;;;;;;;4.91;71.77;101121.01;1683249;84;21406;-64
2021/11/24 10:49:42;;;;;;;11.90;10.57;;;;;;;4.92;70.82;101117.41;1676725;84;21063;-63
2021/11/24 10:52:32;;;;;;;11.47;10.10;;;;;;;4.98;71.46;101114.23;1679996;84;21026;-63
2021/11/24 10:55:18;;;;;;;14.20;10.80;;;;;;;4.99;70.51;101109.28;1656797;84;21544;-64
2021/11/24 10:58:07;;;;;;;11.87;9.47;;;;;;;5.02;70.81;101116.95;1667165;84;21047;-62
2021/11/24 11:00:44;;;;;;;13.47;10.37;;;;;;;5.05;71.04;101114.88;1657140;85;21116;-61
2021/11/24 11:03:13;;;;;;;12.58;10.32;;;;;;;5.07;70.61;101112.11;1672341;84;21127;-62
2021/11/24 11:05:45;;;;;;;15.33;11.90;;;;;;;5.09;70.44;101110.17;1673262;84;21024;-60
2021/11/24 11:08:15;;;;;;;12.40;10.83;;;;;;;5.12;70.86;101102.45;1668615;84;21535;-61
2021/11/24 11:10:45;;;;;;;16.13;13.50;;;;;;;5.18;70.78;101107.19;1663403;84;21941;-63
2021/11/24 11:13:16;;;;;;;18.30;12.00;;;;;;;5.19;70.79;101104.42;1670335;83;21072;-62
2021/11/24 11:15:50;;;;;;;15.13;11.27;;;;;;;5.19;71.19;101111.52;1667898;84;21042;-63
2021/11/24 11:18:32;;;;;;;14.27;11.50;;;;;;;5.19;71.13;101104.91;1673404;84;21031;-61
2021/11/24 11:21:09;;;;;;;13.33;10.07;;;;;;;5.20;71.17;101100.82;1670113;84;21059;-62
2021/11/24 11:23:44;;;;;;;12.63;10.58;;;;;;;5.25;70.80;101094.66;1628136;85;21051;-63
2021/11/24 11:26:17;;;;;;;12.80;10.03;;;;;;;5.27;70.99;101099.78;1669132;84;21002;-62
2021/11/24 11:28:50;;;;;;;13.43;10.53;;;;;;;5.26;70.33;101098.13;1655241;84;21592;-61
2021/11/24 11:31:20;;;;;;;10.90;9.77;;;;;;;5.26;70.54;101098.13;1668755;84;21050;-63